Main page
METAR-TAF:

METAR-TAF

Airports :

Frontone, Italy

latitude: 43-31N, longitude: 012-44E, elevation: 570 m

Current weather observation

The report was made 34 minutes ago, at 08:55 UTC
Wind 3 kt from the North
Temperature 24°C
Humidity 57%
Pressure 1016 hPa
Visibility 10 km or more
Few clouds at a height of 4000 ft

METAR: LIVF 170855Z 01003KT 9999 FEW040 24/15 Q1016 RMK FEW MON LIB VAL NIL VIS MIN 9999

Time: 11:29 (09:29 UTC)


TAF: missing

Weather observations and forecasts of more than 4000 airports (METAR and TAF reports).

The available stations are represented by yellow and red dots on the map.

Hover mouse over dot to see the name of the station.

Then click to see weather observations and forecasts.

To change the map : click on the green buttons with a black cross to zoom in, on the green button with a dash to zoom out, or on the green arrows for adjacent maps.


METAR-TAF: